الصفحة الرئيسية
METAR-TAF:

METAR-TAF

مطار :

انجمينا, تشاد

مطار انجمينا الدولي

دائرة عرض: 12-08N, خط طول: 015-02E, ارتفاع: 295 متر

مراقبة الطقس الحالي

تاريخ ووقت الإصدار 55 دقيقة قبل الساعة 08:00UTC
ريح 4 عقدة من الغرب, الاتجاه يتراوح بين الغرب/الجنوب الغربي و الشمال الغربي
درجة الحرارة 32°درجة مئوية
الرطوبة 20%
ضغط 1006 hPa
الرؤية: 8000 متر

METAR: FTTJ 220800Z 28004KT 250V310 8000 NSC 32/06 Q1006 NOSIG

زمن: 09:55 (08:55 UTC)

توقعات

تاريخ ووقت الإصدار 3ساعات و 42 دقيقة قبل الساعة 05:13UTC
التوقعات صالحة من22 الساعة 06 UTC إلى 23 الساعة 12 UTC
ريح 6 عقدة من الشمال/الشمال الشرقي
الرؤية 10 كم أو أكثر
الغيوم لا تقل 1500 م ولا وجود لمزنة ركامية السحاب الأسود

TAF: FTTJ 220513Z 2206/2312 02006KT CAVOK

أرصاد الطقس والتوقعات من أكثر من 4000 مطار (تقارير الطقس للمطار METAR والتنبؤ بالطقس بالمطارTAF).

المحطات المتاحة هي النقط الصفراء والحمراء على الخريطة.

حرك المؤشر فوق النقطة لمعرفة اسم المحطة.

ثم انقر لمعرفة أرصاد وتوقعات الطقس.

لتغيير الخارطة: اضغط على الأزرار الخضراء مع رمز الصليب الأسود للتكبير. على الزر الأخضر مع شرطة للتصغير، أو على الأسهم الخضراء للخرائط المجاورة.


METAR-TAF: